Time;durP1;ratioP1;P1;durP2;ratioP2;P2;SDS_P1;SDS_P2;PMS_P1;PMS_P2;Temp;Humidity;BMP_temperature;BMP_pressure;BME280_temperature;BME280_humidity;BME280_pressure;Samples;Min_cycle;Max_cycle;Signal;HPM_P1;HPM_P2
2022/01/13 00:00:36;;;;;;;25.73;3.72;;;6.40;87.80;;;;;;4127980;28;20124;-86
2022/01/13 00:02:37;;;;;;;27.80;4.40;;;6.40;87.80;;;;;;4151916;28;20120;-84
2022/01/13 00:04:38;;;;;;;33.13;5.13;;;6.40;87.90;;;;;;4144023;28;20021;-84
2022/01/13 00:06:39;;;;;;;39.08;5.45;;;6.40;87.90;;;;;;4110427;28;20031;-84
2022/01/13 00:08:40;;;;;;;39.08;5.13;;;6.30;87.80;;;;;;4113052;28;20037;-84
2022/01/13 00:10:40;;;;;;;32.95;5.07;;;6.30;87.90;;;;;;4144733;28;20022;-84
2022/01/13 00:12:43;;;;;;;43.90;5.90;;;6.30;88.00;;;;;;4148440;28;20025;-85
2022/01/13 00:17:22;;;;;;;39.40;5.28;;;6.30;88.10;;;;;;4124106;28;20038;-84
2022/01/13 00:19:34;;;;;;;51.10;6.18;;;6.40;88.20;;;;;;4129662;28;20026;-84
2022/01/13 00:21:38;;;;;;;34.85;5.63;;;6.40;88.20;;;;;;4143604;28;20403;-84
2022/01/13 00:25:39;;;;;;;36.25;5.03;;;6.30;88.90;;;;;;4143948;28;20025;-84
2022/01/13 00:27:46;;;;;;;34.17;5.90;;;6.40;88.20;;;;;;4143552;28;20022;-84
2022/01/13 00:29:47;;;;;;;36.13;5.20;;;6.40;88.20;;;;;;4145404;28;20046;-84
2022/01/13 00:31:47;;;;;;;39.03;6.60;;;6.30;88.20;;;;;;4127105;28;20381;-84
2022/01/13 00:33:50;;;;;;;30.75;5.32;;;6.40;88.30;;;;;;4148507;28;20088;-84
2022/01/13 00:35:52;;;;;;;37.13;5.28;;;6.30;88.30;;;;;;4144540;28;20130;-83
2022/01/13 00:37:53;;;;;;;37.65;5.10;;;6.40;88.40;;;;;;4143009;28;20034;-84
2022/01/13 00:39:56;;;;;;;35.50;5.85;;;6.40;88.40;;;;;;4145220;28;20093;-83
2022/01/13 00:42:04;;;;;;;28.23;5.72;;;6.40;88.40;;;;;;4140587;28;20042;-84
2022/01/13 00:44:06;;;;;;;34.42;4.63;;;6.40;88.50;;;;;;4144255;28;20026;-84
2022/01/13 00:46:07;;;;;;;32.88;5.70;;;6.40;88.40;;;;;;4126262;28;20042;-85
2022/01/13 00:48:08;;;;;;;43.25;5.93;;;6.40;88.50;;;;;;4111883;28;20109;-83
2022/01/13 00:50:09;;;;;;;38.67;5.75;;;6.40;88.70;;;;;;4167201;28;20036;-86
2022/01/13 00:52:09;;;;;;;38.25;6.57;;;6.40;88.60;;;;;;4111509;28;20062;-87
2022/01/13 00:54:10;;;;;;;37.90;6.13;;;6.40;88.80;;;;;;4131108;28;20034;-86
2022/01/13 00:56:11;;;;;;;42.25;6.22;;;6.40;89.40;;;;;;4142049;28;20034;-87
2022/01/13 00:58:11;;;;;;;39.83;6.13;;;6.40;88.80;;;;;;4144358;28;20475;-86
2022/01/13 01:00:12;;;;;;;29.00;6.30;;;6.60;88.90;;;;;;4141201;28;20037;-85
2022/01/13 01:02:13;;;;;;;49.92;8.63;;;6.50;88.80;;;;;;4110910;28;20065;-86
2022/01/13 01:04:14;;;;;;;30.08;6.95;;;6.40;88.80;;;;;;4146591;28;20037;-86
2022/01/13 01:06:14;;;;;;;34.40;7.78;;;6.40;88.90;;;;;;4130113;28;20026;-86
2022/01/13 01:08:15;;;;;;;38.50;8.07;;;6.50;89.00;;;;;;4129149;28;20488;-86
2022/01/13 01:10:36;;;;;;;41.97;7.38;;;6.50;89.00;;;;;;4134884;28;20026;-84
2022/01/13 01:12:38;;;;;;;34.35;7.22;;;6.50;89.00;;;;;;4145061;28;20026;-85
2022/01/13 01:14:45;;;;;;;25.35;4.93;;;6.50;89.00;;;;;;4142400;28;20030;-85
2022/01/13 01:16:46;;;;;;;32.42;5.18;;;6.50;88.80;;;;;;4142339;28;20026;-85
2022/01/13 01:21:02;;;;;;;38.53;5.78;;;6.60;88.90;;;;;;4144107;28;20041;-86
2022/01/13 01:23:13;;;;;;;42.63;6.63;;;6.60;89.00;;;;;;4128306;28;20054;-86
2022/01/13 01:27:18;;;;;;;36.67;6.80;;;6.50;88.90;;;;;;4143488;28;20033;-86
2022/01/13 01:29:24;;;;;;;35.00;7.05;;;6.50;89.00;;;;;;4141850;28;20084;-86
2022/01/13 01:31:31;;;;;;;24.90;5.25;;;6.60;89.00;;;;;;4112727;28;20034;-86
2022/01/13 01:33:33;;;;;;;30.58;6.10;;;6.60;89.00;;;;;;4146632;28;20033;-85
2022/01/13 01:35:34;;;;;;;35.88;6.63;;;6.50;89.70;;;;;;4142744;28;20556;-85
2022/01/13 01:37:34;;;;;;;43.08;7.00;;;6.60;89.00;;;;;;4144568;28;20113;-85
2022/01/13 01:39:35;;;;;;;30.17;6.55;;;6.60;88.90;;;;;;4143037;28;20396;-86
2022/01/13 01:41:37;;;;;;;32.92;6.30;;;6.60;89.00;;;;;;4122918;28;20038;-86
2022/01/13 01:43:37;;;;;;;34.60;5.90;;;6.60;89.00;;;;;;4143278;28;20096;-86
2022/01/13 01:45:44;;;;;;;46.63;7.97;;;6.70;89.10;;;;;;4112732;28;20019;-87
2022/01/13 01:47:45;;;;;;;25.30;4.95;;;6.60;89.00;;;;;;4137292;28;20029;-86
2022/01/13 01:49:48;;;;;;;34.58;6.95;;;6.60;88.90;;;;;;4141709;28;20632;-86
2022/01/13 01:51:56;;;;;;;40.00;6.10;;;6.60;88.90;;;;;;4125271;28;20406;-87
2022/01/13 01:53:57;;;;;;;40.33;7.25;;;6.60;88.80;;;;;;4143314;28;20034;-86
2022/01/13 01:55:57;;;;;;;30.13;6.47;;;6.60;88.90;;;;;;4144029;28;20764;-85
2022/01/13 01:57:58;;;;;;;29.42;4.40;;;6.60;88.90;;;;;;4114866;28;20026;-85
2022/01/13 01:59:59;;;;;;;26.88;5.15;;;6.60;88.90;;;;;;4145121;28;20065;-85
2022/01/13 02:02:00;;;;;;;33.60;5.97;;;6.60;89.00;;;;;;4129722;28;20034;-86
2022/01/13 02:04:00;;;;;;;39.38;6.63;;;6.60;88.90;;;;;;4131888;28;20210;-85
2022/01/13 02:06:01;;;;;;;39.97;7.70;;;6.60;89.00;;;;;;4146588;28;20024;-86
2022/01/13 02:08:02;;;;;;;30.25;5.30;;;6.60;89.00;;;;;;4147835;28;20018;-86
2022/01/13 02:10:04;;;;;;;36.03;6.00;;;6.60;89.10;;;;;;4145109;28;20526;-86
2022/01/13 02:12:10;;;;;;;29.13;4.80;;;6.60;89.20;;;;;;4144557;28;20148;-85
2022/01/13 02:14:33;;;;;;;38.88;6.93;;;6.60;89.10;;;;;;4159736;28;20029;-86
2022/01/13 02:18:34;;;;;;;31.80;5.90;;;6.70;89.00;;;;;;4130538;28;20101;-84
2022/01/13 02:20:44;;;;;;;34.58;6.07;;;6.60;88.90;;;;;;4143539;28;20037;-84
2022/01/13 02:22:45;;;;;;;42.60;6.15;;;6.60;88.80;;;;;;4145582;28;20068;-84
2022/01/13 02:24:46;;;;;;;25.35;5.22;;;6.60;88.80;;;;;;4145738;28;20391;-85
2022/01/13 02:26:46;;;;;;;33.03;4.88;;;6.60;88.90;;;;;;4129434;28;20027;-84
2022/01/13 02:28:48;;;;;;;32.08;5.10;;;6.60;88.80;;;;;;4113489;28;20023;-84
2022/01/13 02:30:48;;;;;;;26.38;5.88;;;6.70;88.90;;;;;;4128660;28;20053;-84
2022/01/13 02:32:49;;;;;;;46.92;6.40;;;6.70;88.80;;;;;;4145305;28;20034;-84
2022/01/13 02:34:49;;;;;;;48.15;5.75;;;6.70;88.80;;;;;;4147269;28;20514;-84
2022/01/13 02:36:54;;;;;;;36.03;5.60;;;6.70;88.80;;;;;;4141820;28;20030;-85
2022/01/13 02:38:55;;;;;;;29.77;5.43;;;6.70;88.80;;;;;;4145146;28;20033;-84
2022/01/13 02:40:56;;;;;;;32.10;5.57;;;6.60;88.70;;;;;;4114774;28;20543;-84
2022/01/13 02:42:57;;;;;;;33.63;4.88;;;6.70;88.70;;;;;;4157523;28;20599;-84
2022/01/13 02:45:02;;;;;;;35.47;5.93;;;6.70;88.70;;;;;;4146408;28;20030;-85
2022/01/13 02:47:34;;;;;;;35.47;6.82;;;6.70;88.70;;;;;;4140577;28;20598;-86
2022/01/13 02:49:27;;;;;;;35.03;5.32;;;6.70;88.60;;;;;;4140962;28;20025;-85
2022/01/13 02:51:27;;;;;;;34.22;5.78;;;6.70;88.60;;;;;;4148690;28;20715;-85
2022/01/13 02:53:28;;;;;;;38.40;5.80;;;6.70;88.40;;;;;;4125963;28;20110;-85
2022/01/13 02:55:29;;;;;;;33.30;4.88;;;6.70;88.30;;;;;;4146650;28;20044;-85
2022/01/13 02:57:29;;;;;;;26.77;4.10;;;6.80;88.30;;;;;;4142925;28;20105;-85
2022/01/13 02:59:31;;;;;;;37.88;5.82;;;6.70;88.20;;;;;;4147880;28;20033;-86
2022/01/13 03:01:32;;;;;;;42.75;4.88;;;6.70;88.20;;;;;;4129843;28;20109;-85
2022/01/13 03:03:35;;;;;;;36.53;5.07;;;6.70;88.10;;;;;;4113978;28;20042;-85
2022/01/13 03:05:38;;;;;;;30.40;4.45;;;6.70;88.20;;;;;;4114223;28;20092;-85
2022/01/13 03:07:39;;;;;;;;;;;6.80;88.30;;;;;;4147310;28;20156;-85
2022/01/13 03:09:40;;;;;;;26.63;3.90;;;6.70;88.20;;;;;;4143539;28;19913;-86
2022/01/13 03:11:43;;;;;;;41.38;4.35;;;6.70;88.20;;;;;;4130349;28;20065;-85
2022/01/13 03:13:44;;;;;;;43.85;5.10;;;6.70;88.20;;;;;;4129697;28;20034;-85
2022/01/13 03:15:44;;;;;;;28.10;4.15;;;6.60;88.20;;;;;;4129294;28;20061;-85
2022/01/13 03:17:45;;;;;;;35.47;5.05;;;6.60;88.20;;;;;;4146771;28;20029;-86
2022/01/13 03:19:46;;;;;;;35.58;6.32;;;6.70;88.20;;;;;;4144615;28;20022;-86
2022/01/13 03:21:46;;;;;;;27.45;4.47;;;6.70;88.20;;;;;;4159112;28;20128;-87
2022/01/13 03:23:47;;;;;;;42.72;5.43;;;6.70;88.20;;;;;;4140626;28;20478;-86
2022/01/13 03:25:48;;;;;;;34.92;5.40;;;6.60;88.20;;;;;;4144601;28;20033;-86
2022/01/13 03:27:55;;;;;;;31.85;5.05;;;6.70;88.20;;;;;;4144197;28;20414;-87
2022/01/13 03:29:55;;;;;;;50.67;7.07;;;6.70;88.30;;;;;;4152413;28;20575;-86
2022/01/13 03:31:56;;;;;;;35.90;6.13;;;6.60;88.10;;;;;;4128152;28;20181;-86
2022/01/13 03:33:57;;;;;;;37.38;6.95;;;6.70;88.30;;;;;;4128358;28;20057;-87
2022/01/13 03:35:58;;;;;;;33.13;5.40;;;6.60;88.30;;;;;;4127124;28;20034;-87
2022/01/13 03:37:58;;;;;;;28.70;5.78;;;6.60;88.40;;;;;;4129664;28;20061;-85
2022/01/13 03:39:59;;;;;;;35.92;5.35;;;6.60;88.50;;;;;;4146598;28;20541;-86
2022/01/13 03:42:02;;;;;;;32.38;5.45;;;6.70;88.50;;;;;;4129446;28;20038;-86
2022/01/13 03:44:06;;;;;;;43.30;7.20;;;6.70;88.50;;;;;;4127144;28;20026;-85
2022/01/13 03:46:07;;;;;;;40.05;5.68;;;6.60;88.50;;;;;;4137196;28;20029;-85
2022/01/13 03:48:09;;;;;;;37.65;5.90;;;6.60;88.50;;;;;;4143039;28;20129;-86
2022/01/13 03:50:09;;;;;;;37.88;5.70;;;6.70;88.60;;;;;;4114313;28;20035;-85
2022/01/13 03:52:31;;;;;;;48.67;6.53;;;6.60;88.50;;;;;;4128862;28;20073;-85
2022/01/13 03:54:32;;;;;;;31.13;5.60;;;6.60;88.60;;;;;;4145007;28;20034;-85
2022/01/13 03:56:50;;;;;;;25.75;6.07;;;6.60;88.70;;;;;;4142223;28;20026;-85
2022/01/13 03:59:07;;;;;;;29.85;6.30;;;6.60;88.80;;;;;;4139363;28;20734;-85
2022/01/13 04:01:26;;;;;;;37.00;6.32;;;6.60;88.80;;;;;;4161108;28;20038;-85
2022/01/13 04:03:26;;;;;;;53.88;7.30;;;6.60;88.80;;;;;;4144956;28;20403;-86
2022/01/13 04:05:27;;;;;;;48.85;6.88;;;6.60;88.80;;;;;;4110886;28;20031;-86
2022/01/13 04:07:28;;;;;;;38.30;6.22;;;6.60;88.90;;;;;;4144258;28;20091;-85
2022/01/13 04:09:28;;;;;;;40.10;5.50;;;6.60;88.80;;;;;;4127553;28;20105;-85
2022/01/13 04:11:30;;;;;;;37.88;6.35;;;6.70;88.90;;;;;;4146465;28;20026;-86
2022/01/13 04:13:47;;;;;;;44.60;6.43;;;6.70;88.90;;;;;;4111955;28;20094;-85
2022/01/13 04:15:48;;;;;;;46.75;5.82;;;6.70;88.70;;;;;;4129710;28;20029;-86
2022/01/13 04:17:48;;;;;;;39.50;7.32;;;6.70;88.60;;;;;;4148703;28;20198;-86
2022/01/13 04:19:49;;;;;;;37.78;7.40;;;6.70;88.50;;;;;;4142627;28;20067;-85
2022/01/13 04:21:50;;;;;;;37.10;6.63;;;6.70;88.60;;;;;;4110128;28;20051;-85
2022/01/13 04:23:53;;;;;;;38.22;6.65;;;6.70;88.40;;;;;;4122001;28;20030;-86
2022/01/13 04:25:53;;;;;;;43.13;6.30;;;6.70;88.30;;;;;;4109829;28;20159;-86
2022/01/13 04:28:01;;;;;;;32.53;5.20;;;6.70;88.30;;;;;;4127629;28;20500;-86
2022/01/13 04:30:33;;;;;;;37.30;6.53;;;6.70;88.30;;;;;;4125282;28;20114;-85
2022/01/13 04:32:31;;;;;;;36.47;5.75;;;6.70;88.20;;;;;;4142428;28;20502;-86
2022/01/13 04:34:32;;;;;;;49.55;7.88;;;6.70;88.10;;;;;;4143881;28;20037;-87
2022/01/13 04:36:33;;;;;;;34.42;6.45;;;6.70;87.90;;;;;;4131788;28;20488;-87
2022/01/13 04:38:33;;;;;;;34.78;6.95;;;6.70;87.90;;;;;;4127225;28;20096;-87
2022/01/13 04:40:35;;;;;;;42.15;7.00;;;6.70;87.70;;;;;;4129846;28;20029;-86
2022/01/13 04:42:37;;;;;;;38.97;7.45;;;6.70;87.80;;;;;;4121257;28;20049;-86
2022/01/13 04:44:38;;;;;;;45.13;7.20;;;6.70;88.40;;;;;;4128369;28;20037;-86
2022/01/13 04:46:39;;;;;;;39.50;6.63;;;6.70;87.80;;;;;;4109292;28;20106;-86
2022/01/13 04:48:40;;;;;;;34.50;5.88;;;6.70;87.80;;;;;;4143340;28;20121;-86
2022/01/13 04:50:41;;;;;;;35.85;6.07;;;6.70;87.70;;;;;;4159622;28;20056;-86
2022/01/13 04:52:42;;;;;;;42.17;7.13;;;6.70;87.60;;;;;;4129933;28;20033;-87
2022/01/13 04:54:44;;;;;;;43.63;5.90;;;6.70;87.60;;;;;;4142107;28;20095;-87
2022/01/13 04:57:14;;;;;;;43.47;6.68;;;6.70;87.70;;;;;;4138763;28;20765;-86
2022/01/13 04:59:06;;;;;;;39.55;6.88;;;6.70;87.60;;;;;;4114204;28;20043;-86
2022/01/13 05:01:07;;;;;;;53.28;7.70;;;6.70;87.60;;;;;;4095493;28;20493;-87
2022/01/13 05:03:07;;;;;;;39.42;6.15;;;6.70;87.60;;;;;;4120773;28;20037;-87
2022/01/13 05:05:08;;;;;;;39.80;6.50;;;6.70;87.60;;;;;;4093870;28;20023;-84
2022/01/13 05:07:09;;;;;;;46.42;6.75;;;6.70;87.70;;;;;;4144474;28;20069;-83
2022/01/13 05:09:09;;;;;;;45.45;6.35;;;6.70;87.70;;;;;;4141060;28;20034;-84
2022/01/13 05:11:10;;;;;;;37.15;6.88;;;6.70;87.70;;;;;;4117318;28;20392;-83
2022/01/13 05:13:11;;;;;;;37.97;5.43;;;6.80;87.70;;;;;;4128317;28;20114;-84
2022/01/13 05:15:26;;;;;;;36.00;5.32;;;6.70;87.60;;;;;;4138220;28;20091;-84
2022/01/13 05:20:07;;;;;;;29.00;5.47;;;6.70;87.60;;;;;;4135275;28;20038;-84
2022/01/13 05:22:15;;;;;;;28.23;5.57;;;6.70;87.40;;;;;;4145421;28;20466;-87
2022/01/13 05:24:16;;;;;;;38.20;6.38;;;6.70;87.40;;;;;;4134605;28;20033;-84
2022/01/13 05:26:16;;;;;;;30.85;5.75;;;6.80;87.40;;;;;;4136678;28;20117;-84
2022/01/13 05:28:17;;;;;;;33.97;5.47;;;6.70;87.10;;;;;;4139450;28;20034;-84
2022/01/13 05:30:19;;;;;;;37.78;5.45;;;6.80;87.30;;;;;;4160984;28;20588;-84
2022/01/13 05:32:19;;;;;;;31.60;5.35;;;6.80;87.10;;;;;;4122132;28;20022;-84
2022/01/13 05:34:20;;;;;;;36.40;5.53;;;6.80;87.00;;;;;;4140651;28;20030;-84
2022/01/13 05:36:20;;;;;;;31.15;4.95;;;6.80;86.90;;;;;;4139969;28;20022;-83
2022/01/13 05:38:21;;;;;;;46.25;6.20;;;6.90;87.60;;;;;;4128027;28;20477;-84
2022/01/13 05:40:22;;;;;;;28.80;4.70;;;6.90;86.70;;;;;;4106394;28;20039;-84
2022/01/13 05:42:23;;;;;;;37.90;5.97;;;6.80;87.20;;;;;;4125673;28;20454;-84
2022/01/13 05:44:23;;;;;;;35.55;5.13;;;6.80;86.40;;;;;;4122841;28;20026;-84
2022/01/13 05:46:24;;;;;;;33.00;5.70;;;6.80;86.40;;;;;;4148403;28;20037;-84
2022/01/13 05:48:25;;;;;;;36.63;5.53;;;6.90;86.30;;;;;;4143706;28;20037;-84
2022/01/13 05:50:26;;;;;;;35.92;5.65;;;6.80;86.20;;;;;;4145220;28;20021;-86
2022/01/13 05:52:26;;;;;;;45.45;5.78;;;6.90;86.10;;;;;;4145533;28;20045;-84
2022/01/13 05:54:27;;;;;;;41.08;6.05;;;6.90;86.10;;;;;;4144696;28;20045;-84
2022/01/13 05:56:27;;;;;;;38.40;5.68;;;6.90;86.10;;;;;;4140876;28;20033;-84
2022/01/13 05:58:28;;;;;;;33.10;5.53;;;6.90;85.90;;;;;;4144645;28;20026;-84
2022/01/13 06:00:29;;;;;;;34.55;4.80;;;6.90;85.80;;;;;;4142517;28;20040;-84
2022/01/13 06:02:30;;;;;;;30.55;4.85;;;6.90;85.70;;;;;;4162686;28;20085;-84
2022/01/13 06:04:30;;;;;;;31.75;4.57;;;6.90;85.70;;;;;;4143132;28;20038;-84
2022/01/13 06:06:31;;;;;;;24.75;4.28;;;6.90;85.60;;;;;;4142721;28;20041;-84
2022/01/13 06:08:31;;;;;;;28.75;4.88;;;6.90;85.50;;;;;;4140869;28;20084;-84
2022/01/13 06:10:32;;;;;;;30.55;4.30;;;6.90;85.50;;;;;;4140612;28;20037;-84
2022/01/13 06:12:34;;;;;;;32.63;5.53;;;6.90;85.30;;;;;;4160113;28;20025;-85
2022/01/13 06:14:35;;;;;;;38.53;4.93;;;6.90;85.30;;;;;;4147274;28;20030;-84
2022/01/13 06:16:36;;;;;;;36.67;4.68;;;6.90;85.20;;;;;;4152057;28;20400;-84
2022/01/13 06:18:36;;;;;;;31.23;5.10;;;6.90;85.20;;;;;;4144466;28;20037;-84
2022/01/13 06:20:39;;;;;;;28.70;5.15;;;6.90;85.10;;;;;;4143551;28;20045;-84
2022/01/13 06:22:41;;;;;;;35.78;4.95;;;6.90;85.00;;;;;;4143694;28;20044;-84
2022/01/13 06:24:42;;;;;;;36.20;4.20;;;7.00;85.00;;;;;;4123587;28;20027;-84
2022/01/13 06:26:42;;;;;;;31.65;4.63;;;6.90;85.00;;;;;;4143297;28;20042;-85
2022/01/13 06:28:43;;;;;;;24.98;4.13;;;6.90;85.00;;;;;;4142720;28;20026;-84
2022/01/13 06:30:44;;;;;;;33.65;4.65;;;7.00;85.60;;;;;;4146874;28;20038;-84
2022/01/13 06:32:46;;;;;;;28.70;3.88;;;6.90;84.80;;;;;;4125511;28;20061;-84
2022/01/13 06:34:48;;;;;;;28.17;4.38;;;6.90;84.70;;;;;;4112797;28;20023;-85
2022/01/13 06:36:48;;;;;;;27.45;4.18;;;6.90;85.50;;;;;;4139964;28;20065;-84
2022/01/13 06:38:50;;;;;;;34.10;4.28;;;7.00;85.40;;;;;;4144224;28;20175;-85
2022/01/13 06:40:52;;;;;;;30.17;4.80;;;7.00;84.70;;;;;;4142917;28;20112;-85
2022/01/13 06:42:52;;;;;;;30.27;3.95;;;6.90;84.40;;;;;;4112910;28;20192;-84
2022/01/13 06:44:53;;;;;;;38.20;4.15;;;6.90;84.40;;;;;;4139435;28;20053;-84
2022/01/13 06:46:53;;;;;;;21.38;3.28;;;7.00;84.70;;;;;;4126513;28;20035;-87
2022/01/13 06:48:54;;;;;;;33.17;3.95;;;7.00;84.50;;;;;;4126765;28;20030;-84
2022/01/13 06:50:55;;;;;;;27.08;3.80;;;6.90;84.40;;;;;;4141529;28;20058;-84
2022/01/13 06:52:56;;;;;;;23.77;3.85;;;7.00;84.40;;;;;;4125885;28;20122;-84
2022/01/13 06:54:57;;;;;;;24.35;3.80;;;6.90;85.20;;;;;;4139748;28;20061;-84
2022/01/13 06:56:57;;;;;;;28.45;4.82;;;7.00;84.40;;;;;;4131505;28;20034;-83
2022/01/13 06:58:59;;;;;;;31.75;4.43;;;7.00;84.40;;;;;;4114995;28;20492;-83
2022/01/13 07:00:59;;;;;;;33.33;4.18;;;6.90;84.30;;;;;;4141488;28;20680;-83
2022/01/13 07:03:03;;;;;;;31.90;5.15;;;7.00;84.30;;;;;;4134729;28;20112;-83
2022/01/13 07:05:04;;;;;;;29.52;4.80;;;6.90;84.30;;;;;;4141829;28;20026;-83
2022/01/13 07:07:04;;;;;;;30.30;4.30;;;7.00;84.20;;;;;;4122358;28;20497;-84
2022/01/13 07:09:07;;;;;;;27.88;4.68;;;6.90;84.20;;;;;;4144358;28;20061;-83
2022/01/13 07:11:08;;;;;;;26.50;4.15;;;6.90;84.10;;;;;;4121807;28;20455;-83
2022/01/13 07:13:08;;;;;;;33.83;4.32;;;7.00;84.10;;;;;;4135149;28;20042;-83
2022/01/13 07:15:09;;;;;;;32.88;4.05;;;7.00;84.00;;;;;;4141538;28;20030;-83
2022/01/13 07:17:10;;;;;;;27.52;3.75;;;6.90;84.00;;;;;;4125552;28;20073;-84
2022/01/13 07:19:11;;;;;;;32.42;4.13;;;7.00;84.10;;;;;;4143589;28;20027;-83
2022/01/13 07:21:12;;;;;;;30.65;4.53;;;7.00;84.00;;;;;;4105519;28;20460;-83
2022/01/13 07:23:13;;;;;;;22.45;3.58;;;7.00;83.90;;;;;;4153174;28;20796;-84
2022/01/13 07:25:13;;;;;;;40.35;4.18;;;7.00;84.00;;;;;;4126672;28;20038;-83
2022/01/13 07:27:14;;;;;;;24.15;4.82;;;7.00;83.90;;;;;;4110836;28;20027;-84
2022/01/13 07:29:15;;;;;;;39.83;3.95;;;7.00;83.80;;;;;;4141560;28;20036;-83
2022/01/13 07:31:16;;;;;;;24.15;3.75;;;7.00;83.70;;;;;;4124688;28;20026;-84
2022/01/13 07:33:16;;;;;;;30.08;5.15;;;7.00;83.70;;;;;;4123147;28;20034;-84
2022/01/13 07:35:17;;;;;;;30.23;4.85;;;7.00;83.80;;;;;;4141709;28;20025;-83
2022/01/13 07:37:18;;;;;;;28.98;4.53;;;7.00;83.70;;;;;;4136269;28;20108;-84
2022/01/13 07:39:18;;;;;;;24.27;3.22;;;7.10;83.70;;;;;;4138604;28;20518;-83
2022/01/13 07:41:19;;;;;;;29.15;3.35;;;7.00;83.60;;;;;;4121105;28;20034;-84
2022/01/13 07:43:23;;;;;;;23.25;3.35;;;7.00;83.50;;;;;;4126437;28;20385;-83
2022/01/13 07:45:24;;;;;;;39.78;4.18;;;7.00;83.50;;;;;;4140317;28;20034;-83
2022/01/13 07:47:27;;;;;;;39.53;4.45;;;7.10;83.50;;;;;;4123188;28;20026;-84
2022/01/13 07:49:28;;;;;;;32.05;3.97;;;7.00;83.50;;;;;;4132116;28;20030;-83
2022/01/13 07:51:29;;;;;;;30.20;3.72;;;7.00;83.50;;;;;;4149853;28;20045;-83
2022/01/13 07:53:30;;;;;;;29.52;4.20;;;7.00;83.50;;;;;;4113352;28;20031;-83
2022/01/13 07:55:31;;;;;;;32.47;3.67;;;7.00;83.40;;;;;;4129329;28;20304;-84
2022/01/13 07:57:31;;;;;;;30.08;4.00;;;7.00;83.50;;;;;;4136681;28;20022;-83
2022/01/13 07:59:32;;;;;;;25.42;4.28;;;7.00;83.50;;;;;;4138448;28;20487;-84
2022/01/13 08:01:33;;;;;;;24.98;3.70;;;7.00;83.50;;;;;;4109929;28;20053;-83
2022/01/13 08:03:33;;;;;;;36.70;3.83;;;7.00;83.60;;;;;;4135512;28;20037;-83
2022/01/13 08:05:34;;;;;;;25.83;3.72;;;7.00;83.50;;;;;;4123460;28;20570;-83
2022/01/13 08:07:34;;;;;;;30.90;4.63;;;7.00;83.50;;;;;;4123394;28;20511;-82
2022/01/13 08:09:35;;;;;;;36.17;4.68;;;7.10;83.50;;;;;;4117705;28;20089;-83
2022/01/13 08:11:36;;;;;;;31.73;3.80;;;7.00;83.30;;;;;;4134912;28;20376;-83
2022/01/13 08:13:36;;;;;;;27.15;5.07;;;7.00;83.40;;;;;;4133988;28;20035;-83
2022/01/13 08:15:37;;;;;;;27.10;4.47;;;7.00;83.40;;;;;;4133589;28;20395;-83
2022/01/13 08:19:57;;;;;;;31.08;4.65;;;7.00;83.40;;;;;;4120474;28;20033;-83
2022/01/13 08:21:58;;;;;;;32.80;4.97;;;7.00;83.40;;;;;;4138629;28;20503;-83
2022/01/13 08:23:58;;;;;;;38.35;4.28;;;7.00;83.50;;;;;;4135375;28;20037;-83
2022/01/13 08:25:59;;;;;;;35.83;5.30;;;7.10;83.60;;;;;;4149152;28;20034;-83
2022/01/13 08:28:00;;;;;;;49.40;4.82;;;7.00;83.50;;;;;;4120857;28;20050;-83
2022/01/13 08:30:00;;;;;;;27.58;3.95;;;7.00;83.40;;;;;;4137306;28;20404;-83
2022/01/13 08:32:01;;;;;;;36.00;6.07;;;7.00;83.50;;;;;;4104531;28;20508;-83
2022/01/13 08:34:03;;;;;;;39.47;5.97;;;7.00;83.40;;;;;;4136496;28;20052;-83
2022/01/13 08:36:04;;;;;;;36.58;5.22;;;7.00;83.50;;;;;;4118669;28;20511;-83
2022/01/13 08:38:15;;;;;;;43.70;4.53;;;7.00;83.50;;;;;;4106025;28;20027;-83
2022/01/13 08:40:16;;;;;;;33.67;4.57;;;7.00;83.50;;;;;;4119590;28;20049;-83
2022/01/13 08:42:17;;;;;;;26.67;3.83;;;7.00;83.60;;;;;;4118919;28;20038;-83
2022/01/13 08:44:18;;;;;;;28.65;4.20;;;7.00;83.70;;;;;;4133922;28;20101;-83
2022/01/13 08:46:18;;;;;;;27.75;5.47;;;7.00;83.70;;;;;;4101361;28;20026;-83
2022/01/13 08:48:19;;;;;;;40.40;5.40;;;7.00;83.80;;;;;;4118843;28;20591;-82
2022/01/13 08:50:20;;;;;;;40.53;5.90;;;7.00;83.80;;;;;;4084759;28;20110;-82
2022/01/13 08:52:20;;;;;;;25.60;5.40;;;7.00;83.70;;;;;;4119008;28;20063;-82
2022/01/13 08:54:22;;;;;;;31.65;5.15;;;7.10;83.70;;;;;;4133644;28;20042;-83
2022/01/13 08:56:22;;;;;;;31.60;4.65;;;7.10;83.70;;;;;;4135584;28;20069;-83
2022/01/13 08:58:23;;;;;;;46.55;5.13;;;7.00;83.60;;;;;;4105249;28;20034;-83
2022/01/13 09:00:24;;;;;;;37.88;4.40;;;7.00;83.60;;;;;;4134346;28;20494;-83
2022/01/13 09:02:25;;;;;;;35.55;4.35;;;7.10;83.60;;;;;;4136226;28;20120;-82
2022/01/13 09:04:25;;;;;;;32.58;4.03;;;7.00;84.20;;;;;;4130157;28;20112;-83
2022/01/13 09:06:26;;;;;;;31.92;4.60;;;7.00;83.40;;;;;;4114366;28;20041;-83
2022/01/13 09:08:27;;;;;;;28.23;4.18;;;7.10;84.20;;;;;;4097098;28;20493;-83
2022/01/13 09:10:27;;;;;;;31.20;4.25;;;7.10;83.40;;;;;;4134169;28;20434;-83
2022/01/13 09:12:28;;;;;;;25.10;4.10;;;7.10;83.50;;;;;;4138608;28;20069;-83
2022/01/13 09:14:31;;;;;;;27.80;4.25;;;7.10;83.40;;;;;;4131708;28;20656;-82
2022/01/13 09:16:42;;;;;;;31.50;4.57;;;7.10;83.50;;;;;;4133487;28;20426;-83
2022/01/13 09:20:56;;;;;;;31.25;5.13;;;7.00;83.30;;;;;;4130577;28;20377;-83
2022/01/13 09:22:57;;;;;;;38.08;4.60;;;7.00;83.30;;;;;;4138964;28;20153;-82
2022/01/13 09:24:57;;;;;;;27.75;3.78;;;7.00;83.20;;;;;;4132045;28;20035;-82
2022/01/13 09:26:58;;;;;;;25.40;4.70;;;7.00;83.30;;;;;;4133876;28;20450;-83
2022/01/13 09:28:59;;;;;;;42.92;4.43;;;7.00;83.30;;;;;;4105577;28;20081;-82
2022/01/13 09:30:59;;;;;;;31.88;4.88;;;7.00;83.30;;;;;;4148058;28;20283;-82
2022/01/13 09:33:00;;;;;;;28.88;3.92;;;7.10;83.30;;;;;;4091145;29;20047;-82
2022/01/13 09:35:00;;;;;;;25.52;4.10;;;7.00;83.30;;;;;;4116389;28;20148;-82
2022/01/13 09:37:01;;;;;;;21.38;4.63;;;7.00;83.20;;;;;;4090756;28;20201;-82
2022/01/13 09:39:03;;;;;;;27.65;4.60;;;7.00;83.30;;;;;;4135557;28;20030;-82
2022/01/13 09:41:04;;;;;;;36.83;4.47;;;7.00;83.30;;;;;;4118568;28;20038;-82
2022/01/13 09:43:04;;;;;;;26.17;3.40;;;7.00;83.20;;;;;;4105801;28;20063;-82
2022/01/13 09:45:06;;;;;;;24.27;4.25;;;7.00;83.20;;;;;;4117265;28;20117;-82
2022/01/13 09:47:06;;;;;;;29.10;3.95;;;7.00;83.30;;;;;;4137072;28;20146;-82
2022/01/13 09:49:08;;;;;;;23.45;3.80;;;7.00;83.20;;;;;;4122967;28;20038;-83
2022/01/13 09:51:09;;;;;;;32.03;4.43;;;7.00;83.30;;;;;;4131925;28;20031;-83
2022/01/13 09:53:09;;;;;;;36.05;4.28;;;7.00;83.20;;;;;;4131667;28;20040;-83
2022/01/13 09:55:11;;;;;;;26.25;5.25;;;7.00;83.20;;;;;;4134324;28;20030;-83
2022/01/13 09:57:11;;;;;;;26.42;3.28;;;7.00;83.20;;;;;;4137837;28;20168;-83
2022/01/13 09:59:12;;;;;;;23.73;3.72;;;7.00;83.20;;;;;;4132150;28;20069;-83
2022/01/13 10:01:13;;;;;;;36.55;5.13;;;7.00;83.20;;;;;;4107138;28;20041;-83
2022/01/13 10:03:15;;;;;;;34.28;4.57;;;7.00;83.20;;;;;;4135295;28;20119;-83
2022/01/13 10:05:17;;;;;;;23.55;3.42;;;7.00;83.00;;;;;;4149098;28;20414;-83
2022/01/13 10:07:30;;;;;;;24.23;3.92;;;7.00;83.00;;;;;;4103394;28;20509;-83
2022/01/13 10:09:51;;;;;;;20.88;3.05;;;7.00;83.10;;;;;;4135325;28;20026;-83
2022/01/13 10:11:56;;;;;;;29.60;4.50;;;7.00;83.10;;;;;;4135392;28;20117;-83
2022/01/13 10:16:28;;;;;;;25.80;4.80;;;7.00;83.00;;;;;;4137436;28;20569;-83
2022/01/13 10:18:40;;;;;;;30.98;3.85;;;7.00;83.00;;;;;;4092204;28;20062;-83
2022/01/13 10:20:41;;;;;;;31.55;4.57;;;7.00;83.10;;;;;;4119441;28;20129;-83
2022/01/13 10:22:42;;;;;;;23.65;5.05;;;7.00;83.10;;;;;;4137195;28;20583;-83
2022/01/13 10:24:44;;;;;;;34.03;4.45;;;7.00;83.20;;;;;;4138837;28;20033;-83
2022/01/13 10:26:57;;;;;;;23.52;4.13;;;7.00;83.00;;;;;;4135361;28;20053;-83
2022/01/13 10:28:58;;;;;;;27.65;3.45;;;7.00;83.20;;;;;;4122095;28;20075;-83
2022/01/13 10:30:59;;;;;;;23.90;3.63;;;7.00;83.20;;;;;;4124146;28;20100;-83
2022/01/13 10:32:59;;;;;;;30.80;4.55;;;7.00;83.20;;;;;;4120811;28;20420;-83
2022/01/13 10:35:02;;;;;;;32.55;3.78;;;7.00;83.20;;;;;;4119321;28;20026;-83
2022/01/13 10:37:07;;;;;;;33.70;4.63;;;7.00;83.20;;;;;;4137041;28;20507;-83
2022/01/13 10:39:07;;;;;;;31.55;4.75;;;7.10;83.20;;;;;;4151078;28;20354;-83
2022/01/13 10:42:11;;;;;;;28.10;3.53;;;7.00;83.10;;;;;;4119352;28;20046;-83
2022/01/13 10:44:15;;;;;;;36.33;4.07;;;7.00;83.10;;;;;;4097200;28;20058;-83
2022/01/13 10:46:15;;;;;;;32.00;3.40;;;6.90;83.10;;;;;;4136366;28;20026;-83
2022/01/13 10:48:24;;;;;;;26.42;3.15;;;7.00;83.20;;;;;;4118801;28;20049;-83
2022/01/13 10:50:30;;;;;;;35.65;4.13;;;6.90;83.20;;;;;;4119942;28;20391;-83
2022/01/13 10:52:31;;;;;;;25.50;4.20;;;7.00;83.30;;;;;;4136603;28;20030;-83
2022/01/13 10:54:32;;;;;;;27.55;2.80;;;7.00;83.40;;;;;;4122272;28;20031;-83
2022/01/13 10:56:32;;;;;;;26.92;4.38;;;7.00;83.50;;;;;;4122494;28;20053;-84
2022/01/13 10:58:38;;;;;;;28.58;3.80;;;6.90;83.40;;;;;;4117451;28;20030;-83